Time;durP1;ratioP1;P1;durP2;ratioP2;P2;SDS_P1;SDS_P2;PMS_P1;PMS_P2;Temp;Humidity;BMP_temperature;BMP_pressure;BME280_temperature;BME280_humidity;BME280_pressure;Samples;Min_cycle;Max_cycle;Signal;HPM_P1;HPM_P2
2021/08/30 00:01:11;;;;;;;0.70;0.70;;;16.90;99.90;;;;;;5057547;28;20238;-67
2021/08/30 00:03:37;;;;;;;5.83;4.20;;;16.80;99.90;;;;;;5057994;28;20215;-71
2021/08/30 00:06:03;;;;;;;1.20;0.60;;;16.80;99.90;;;;;;5057949;28;20173;-68
2021/08/30 00:08:29;;;;;;;1.80;0.97;;;16.80;99.90;;;;;;5057321;28;20438;-67
2021/08/30 00:10:55;;;;;;;0.67;0.67;;;16.70;99.90;;;;;;5057644;28;20474;-67
2021/08/30 00:13:20;;;;;;;1.90;1.80;;;16.80;99.90;;;;;;5057745;28;20180;-67
2021/08/30 00:15:46;;;;;;;0.40;0.30;;;16.70;99.90;;;;;;5057691;28;20760;-67
2021/08/30 00:18:12;;;;;;;4.53;2.47;;;16.80;99.90;;;;;;5057316;28;20624;-71
2021/08/30 00:20:37;;;;;;;0.30;0.20;;;16.70;99.90;;;;;;5056476;28;20263;-68
2021/08/30 00:23:03;;;;;;;0.40;0.40;;;16.80;99.90;;;;;;5056299;28;20177;-68
2021/08/30 00:25:28;;;;;;;0.50;0.40;;;16.80;99.90;;;;;;5057440;28;20181;-71
2021/08/30 00:27:54;;;;;;;1.23;1.13;;;16.80;99.90;;;;;;5057573;28;20262;-67
2021/08/30 00:30:20;;;;;;;1.73;1.23;;;16.70;99.90;;;;;;5057362;28;20247;-70
2021/08/30 00:32:45;;;;;;;6.43;4.80;;;16.70;99.90;;;;;;5057641;28;20629;-71
2021/08/30 00:35:11;;;;;;;0.30;0.20;;;16.60;99.90;;;;;;5056228;28;20179;-71
2021/08/30 00:37:36;;;;;;;2.50;2.30;;;16.60;99.90;;;;;;5057057;28;20192;-67
2021/08/30 00:40:04;;;;;;;0.87;0.87;;;16.70;99.90;;;;;;5057040;28;20188;-72
2021/08/30 00:42:30;;;;;;;1.90;1.73;;;16.70;99.90;;;;;;5056086;28;20279;-72
2021/08/30 00:44:56;;;;;;;0.30;0.20;;;16.70;99.90;;;;;;5055985;28;20830;-71
2021/08/30 00:47:22;;;;;;;2.93;2.53;;;16.70;99.90;;;;;;5057318;28;20621;-70
2021/08/30 00:49:49;;;;;;;1.20;1.10;;;16.70;99.90;;;;;;5056917;28;20200;-70
2021/08/30 00:52:15;;;;;;;0.87;0.37;;;16.70;99.90;;;;;;5056766;28;20913;-68
2021/08/30 00:54:41;;;;;;;6.20;3.80;;;16.70;99.90;;;;;;5056746;28;20426;-67
2021/08/30 00:57:07;;;;;;;0.53;0.53;;;16.60;99.90;;;;;;5056782;28;20177;-67
2021/08/30 00:59:35;;;;;;;0.93;0.80;;;16.60;99.90;;;;;;5056755;28;20185;-70
2021/08/30 01:02:01;;;;;;;0.40;0.40;;;16.70;99.90;;;;;;5056748;28;20423;-71
2021/08/30 01:04:26;;;;;;;1.53;1.43;;;16.60;99.90;;;;;;5056774;28;20801;-71
2021/08/30 01:07:05;;;;;;;1.77;1.70;;;16.70;99.90;;;;;;5056459;28;20427;-71
2021/08/30 01:09:40;;;;;;;3.73;3.13;;;16.60;99.90;;;;;;5056594;28;20180;-69
2021/08/30 01:12:19;;;;;;;2.13;1.90;;;16.70;99.90;;;;;;5056417;28;20960;-68
2021/08/30 01:15:01;;;;;;;1.63;1.40;;;16.70;99.90;;;;;;5056443;28;20934;-68
2021/08/30 01:17:28;;;;;;;4.03;3.73;;;16.70;99.90;;;;;;5056312;28;20411;-70
2021/08/30 01:20:08;;;;;;;5.00;2.67;;;16.70;99.90;;;;;;5056327;28;20489;-71
2021/08/30 01:22:37;;;;;;;0.83;0.83;;;16.60;99.90;;;;;;5056524;28;20434;-71
2021/08/30 01:25:08;;;;;;;4.80;3.37;;;16.70;99.90;;;;;;5055166;28;20505;-71
2021/08/30 01:27:34;;;;;;;0.40;0.40;;;16.70;99.90;;;;;;5056178;28;20555;-68
2021/08/30 01:30:07;;;;;;;1.77;1.67;;;16.70;99.90;;;;;;5056151;28;20470;-68
2021/08/30 01:32:39;;;;;;;0.30;0.20;;;16.60;99.90;;;;;;5055321;28;20495;-68
2021/08/30 01:35:25;;;;;;;0.50;0.30;;;16.60;99.90;;;;;;5056222;28;20485;-68
2021/08/30 01:37:55;;;;;;;0.83;0.83;;;16.60;99.90;;;;;;5056065;28;20506;-68
2021/08/30 01:40:23;;;;;;;0.40;0.30;;;16.50;99.90;;;;;;5055930;28;20419;-68
2021/08/30 01:42:54;;;;;;;0.40;0.30;;;16.50;99.90;;;;;;5055955;28;20435;-68
2021/08/30 01:45:23;;;;;;;9.25;8.57;;;16.60;99.90;;;;;;5056031;28;20559;-69
2021/08/30 01:47:51;;;;;;;1.57;1.00;;;16.50;99.90;;;;;;5056015;28;20181;-68
2021/08/30 01:50:20;;;;;;;2.93;2.77;;;16.50;99.90;;;;;;5055864;28;20447;-67
2021/08/30 01:52:46;;;;;;;1.73;1.63;;;16.60;99.90;;;;;;5054869;28;20523;-67
2021/08/30 01:55:32;;;;;;;2.40;2.20;;;16.50;99.90;;;;;;5054602;28;20534;-67
2021/08/30 02:00:48;;;;;;;2.20;2.10;;;16.40;99.90;;;;;;5055600;28;20431;-67
2021/08/30 02:03:18;;;;;;;2.30;1.80;;;16.60;99.90;;;;;;5055178;28;20445;-67
2021/08/30 02:05:49;;;;;;;1.70;1.60;;;16.70;99.90;;;;;;5055642;28;20427;-67
2021/08/30 02:08:16;;;;;;;0.30;0.20;;;16.60;99.90;;;;;;5054355;28;20427;-67
2021/08/30 02:10:46;;;;;;;3.23;2.93;;;16.60;99.90;;;;;;5055395;28;20419;-67
2021/08/30 02:13:13;;;;;;;0.87;0.87;;;16.50;99.90;;;;;;5055434;28;20510;-67
2021/08/30 02:15:39;;;;;;;0.85;0.85;;;16.50;99.90;;;;;;5055426;28;20419;-67
2021/08/30 02:18:24;;;;;;;2.47;2.27;;;16.40;99.90;;;;;;5054066;28;20207;-67
2021/08/30 02:21:10;;;;;;;0.65;0.65;;;16.40;99.90;;;;;;5055356;28;20419;-67
2021/08/30 02:23:42;;;;;;;0.75;0.75;;;16.50;99.90;;;;;;5054174;28;20319;-67
2021/08/30 02:26:13;;;;;;;4.00;3.70;;;16.40;99.90;;;;;;5055119;28;20180;-67
2021/08/30 02:28:42;;;;;;;2.87;2.67;;;16.40;99.90;;;;;;5053862;28;20427;-67
2021/08/30 02:31:09;;;;;;;2.25;1.38;;;16.40;99.90;;;;;;5055027;28;20470;-67
2021/08/30 02:33:37;;;;;;;2.05;1.15;;;16.50;99.90;;;;;;5053964;28;20187;-67
2021/08/30 02:36:04;;;;;;;3.20;2.40;;;16.50;99.90;;;;;;5054399;28;20207;-67
2021/08/30 02:38:34;;;;;;;1.43;1.33;;;16.40;99.90;;;;;;5054701;28;20430;-67
2021/08/30 02:41:02;;;;;;;3.07;2.80;;;16.40;99.90;;;;;;5055053;28;20434;-67
2021/08/30 02:43:29;;;;;;;4.18;2.22;;;16.30;99.90;;;;;;5054857;28;20524;-67
2021/08/30 02:45:56;;;;;;;2.00;1.27;;;16.30;99.90;;;;;;5055130;28;20185;-67
2021/08/30 02:48:23;;;;;;;2.13;2.03;;;16.40;99.90;;;;;;5054684;28;20526;-68
2021/08/30 02:50:50;;;;;;;5.73;3.70;;;16.40;99.90;;;;;;5054854;28;20463;-68
2021/08/30 02:53:16;;;;;;;3.50;3.10;;;16.30;99.90;;;;;;5054992;28;20431;-68
2021/08/30 02:55:42;;;;;;;0.40;0.20;;;16.30;99.90;;;;;;5054843;28;20732;-68
2021/08/30 02:58:09;;;;;;;0.30;0.20;;;16.40;99.90;;;;;;5054224;28;20458;-68
2021/08/30 03:00:35;;;;;;;0.40;0.40;;;16.50;99.90;;;;;;5054535;28;20503;-71
2021/08/30 03:03:02;;;;;;;5.07;4.67;;;16.40;99.90;;;;;;5054442;28;20494;-71
2021/08/30 03:05:27;;;;;;;0.60;0.57;;;16.40;99.90;;;;;;5053374;28;20173;-71
2021/08/30 03:07:53;;;;;;;1.43;1.33;;;16.30;99.90;;;;;;5054357;28;20428;-71
2021/08/30 03:10:19;;;;;;;1.10;1.10;;;16.40;99.90;;;;;;5054306;28;20271;-72
2021/08/30 03:12:47;;;;;;;3.03;2.93;;;16.40;99.90;;;;;;5054273;28;20208;-71
2021/08/30 03:15:17;;;;;;;0.73;0.73;;;16.40;99.90;;;;;;5052193;28;20192;-71
2021/08/30 03:17:44;;;;;;;1.87;1.70;;;16.40;99.90;;;;;;5052896;28;20427;-71
2021/08/30 03:20:16;;;;;;;0.40;0.40;;;16.30;99.90;;;;;;5054048;28;20423;-71
2021/08/30 03:22:42;;;;;;;0.40;0.20;;;16.20;99.90;;;;;;5054195;28;20431;-72
2021/08/30 03:25:13;;;;;;;0.40;0.30;;;16.20;99.90;;;;;;5054273;28;20427;-72
2021/08/30 03:27:43;;;;;;;2.00;1.90;;;16.20;99.90;;;;;;5053051;28;20438;-72
2021/08/30 03:30:11;;;;;;;2.43;2.00;;;16.10;99.90;;;;;;5052922;28;21151;-72
2021/08/30 03:32:38;;;;;;;0.87;0.87;;;16.10;99.90;;;;;;5053959;28;20957;-71
2021/08/30 03:35:04;;;;;;;0.30;0.20;;;16.00;99.90;;;;;;5053010;28;20498;-71
2021/08/30 03:37:31;;;;;;;0.73;0.67;;;16.00;99.90;;;;;;5053978;28;20478;-71
2021/08/30 03:39:56;;;;;;;1.57;1.50;;;16.00;99.90;;;;;;5053930;28;20430;-71
2021/08/30 03:42:24;;;;;;;1.27;1.17;;;16.00;99.90;;;;;;5052857;28;20438;-71
2021/08/30 03:44:50;;;;;;;1.38;0.52;;;16.00;99.90;;;;;;5052892;28;20246;-71
2021/08/30 03:47:16;;;;;;;3.80;2.25;;;16.10;99.90;;;;;;5053860;28;20259;-71
2021/08/30 03:49:43;;;;;;;0.33;0.20;;;16.10;99.90;;;;;;5053878;28;20223;-72
2021/08/30 03:52:09;;;;;;;1.27;1.17;;;16.20;99.90;;;;;;5053876;28;20474;-72
2021/08/30 03:54:34;;;;;;;0.30;0.20;;;16.20;99.90;;;;;;5053833;28;20415;-72
2021/08/30 03:57:00;;;;;;;2.33;2.23;;;16.20;99.90;;;;;;5052748;28;20427;-72
2021/08/30 03:59:33;;;;;;;0.50;0.50;;;16.20;99.90;;;;;;5052455;28;20196;-72
2021/08/30 04:01:59;;;;;;;3.13;2.23;;;16.20;99.90;;;;;;5051647;28;20544;-72
2021/08/30 04:04:26;;;;;;;0.30;0.20;;;16.20;99.90;;;;;;5053779;28;20753;-72
2021/08/30 04:06:54;;;;;;;12.43;2.77;;;16.20;99.90;;;;;;5052612;28;20192;-72
2021/08/30 04:09:21;;;;;;;0.90;0.90;;;16.10;99.90;;;;;;5053600;28;20431;-72
2021/08/30 04:11:47;;;;;;;2.50;2.30;;;16.20;99.90;;;;;;5053758;28;20463;-72
2021/08/30 04:14:14;;;;;;;5.28;4.25;;;16.30;99.90;;;;;;5053893;28;20514;-72
2021/08/30 04:16:46;;;;;;;3.60;3.30;;;16.30;99.90;;;;;;5052312;28;20534;-72
2021/08/30 04:19:12;;;;;;;4.23;3.97;;;16.20;99.90;;;;;;5053511;28;20423;-72
2021/08/30 04:21:37;;;;;;;0.40;0.30;;;16.30;99.90;;;;;;5053696;28;20447;-72
2021/08/30 04:24:03;;;;;;;2.40;1.90;;;16.40;99.90;;;;;;5053724;28;20192;-72
2021/08/30 04:26:28;;;;;;;2.87;1.90;;;16.30;99.90;;;;;;5053185;28;20704;-72
2021/08/30 04:28:54;;;;;;;2.23;1.43;;;16.30;99.90;;;;;;5057202;28;20207;-72
2021/08/30 04:31:20;;;;;;;5.47;3.23;;;16.40;99.90;;;;;;5057049;28;20258;-72
2021/08/30 04:33:45;;;;;;;0.30;0.20;;;16.30;99.90;;;;;;5057058;28;20187;-72
2021/08/30 04:36:11;;;;;;;4.03;3.70;;;16.30;99.90;;;;;;5057183;28;20181;-72
2021/08/30 04:38:36;;;;;;;4.10;3.77;;;16.30;99.90;;;;;;5056948;28;20177;-72
2021/08/30 04:41:02;;;;;;;7.90;4.10;;;16.30;99.90;;;;;;5056053;28;20625;-72
2021/08/30 04:43:28;;;;;;;0.40;0.30;;;16.20;99.90;;;;;;5057024;28;20602;-71
2021/08/30 04:45:53;;;;;;;2.37;2.20;;;16.40;99.90;;;;;;5056957;28;20192;-71
2021/08/30 04:48:19;;;;;;;2.47;2.37;;;16.30;99.90;;;;;;5056603;28;20192;-71
2021/08/30 04:50:44;;;;;;;4.33;2.50;;;16.30;99.90;;;;;;5056869;28;20177;-67
2021/08/30 04:53:10;;;;;;;4.43;4.00;;;16.30;99.90;;;;;;5056767;28;20188;-67
2021/08/30 04:55:36;;;;;;;4.43;1.80;;;16.20;99.90;;;;;;5056702;28;20173;-67
2021/08/30 04:58:04;;;;;;;6.97;4.10;;;16.30;99.90;;;;;;5056464;28;20196;-67
2021/08/30 05:00:30;;;;;;;0.40;0.20;;;16.20;99.90;;;;;;5056569;28;20512;-67
2021/08/30 05:02:56;;;;;;;1.70;1.60;;;16.30;99.90;;;;;;5056476;28;20455;-67
2021/08/30 05:05:21;;;;;;;7.93;4.47;;;16.30;99.90;;;;;;5056610;28;20427;-67
2021/08/30 05:07:47;;;;;;;0.57;0.57;;;16.30;99.90;;;;;;5055272;28;20189;-67
2021/08/30 05:10:14;;;;;;;1.87;1.77;;;16.30;99.90;;;;;;5056400;28;20173;-67
2021/08/30 05:12:39;;;;;;;4.70;4.27;;;16.30;99.90;;;;;;5056598;28;20212;-67
2021/08/30 05:15:06;;;;;;;0.70;0.40;;;16.20;99.90;;;;;;5056597;28;20485;-67
2021/08/30 05:17:31;;;;;;;2.13;2.03;;;16.30;99.90;;;;;;5055390;28;20185;-67
2021/08/30 05:19:57;;;;;;;4.07;1.90;;;16.40;99.90;;;;;;5047347;28;20594;-67
2021/08/30 05:22:23;;;;;;;1.37;1.37;;;16.30;99.90;;;;;;5055074;28;20264;-67
2021/08/30 05:24:48;;;;;;;0.97;0.87;;;16.40;99.90;;;;;;5056329;28;20181;-67
2021/08/30 05:27:14;;;;;;;0.30;0.20;;;16.50;99.90;;;;;;5056188;28;20266;-67
2021/08/30 05:29:40;;;;;;;0.40;0.20;;;16.50;99.90;;;;;;5041572;28;20509;-67
2021/08/30 05:32:06;;;;;;;1.30;1.20;;;16.40;99.90;;;;;;5035681;28;20205;-67
2021/08/30 05:34:32;;;;;;;4.03;1.87;;;16.50;99.90;;;;;;5035905;28;20189;-68
2021/08/30 05:36:57;;;;;;;10.33;4.77;;;16.50;99.90;;;;;;5039123;28;20432;-67
2021/08/30 05:39:23;;;;;;;4.17;3.10;;;16.60;99.90;;;;;;5034701;28;20257;-67
2021/08/30 05:41:48;;;;;;;0.93;0.93;;;16.50;99.90;;;;;;5035825;28;20269;-68
2021/08/30 05:44:14;;;;;;;1.23;1.03;;;16.50;99.90;;;;;;5035667;28;20634;-67
2021/08/30 05:46:39;;;;;;;5.27;4.87;;;16.50;99.90;;;;;;5035490;28;20622;-67
2021/08/30 05:49:05;;;;;;;4.43;4.03;;;16.60;99.90;;;;;;5035574;28;20181;-67
2021/08/30 05:51:31;;;;;;;2.63;1.43;;;16.40;99.90;;;;;;5035472;28;20531;-67
2021/08/30 05:53:56;;;;;;;1.07;0.97;;;16.50;99.90;;;;;;5041791;28;20569;-67
2021/08/30 05:56:23;;;;;;;1.83;1.50;;;16.60;99.90;;;;;;5053807;28;20254;-67
2021/08/30 05:58:49;;;;;;;1.40;1.37;;;16.60;99.90;;;;;;5054808;28;20609;-67
2021/08/30 06:01:14;;;;;;;0.87;0.40;;;16.70;99.90;;;;;;5055161;28;20419;-67
2021/08/30 06:03:40;;;;;;;0.50;0.50;;;16.80;99.90;;;;;;5042592;28;20436;-67
2021/08/30 06:06:06;;;;;;;2.60;2.50;;;16.70;99.90;;;;;;5035893;28;20183;-71
2021/08/30 06:08:31;;;;;;;7.63;2.20;;;16.70;99.90;;;;;;5035263;28;20509;-72
2021/08/30 06:10:58;;;;;;;1.23;1.20;;;16.70;99.90;;;;;;5035117;28;20507;-71
2021/08/30 06:13:26;;;;;;;3.17;1.73;;;16.70;99.90;;;;;;5035277;28;20185;-71
2021/08/30 06:15:52;;;;;;;1.40;1.30;;;16.70;99.90;;;;;;5051835;28;20431;-71
2021/08/30 06:18:18;;;;;;;0.70;0.70;;;16.80;99.90;;;;;;5054960;28;20732;-71
2021/08/30 06:20:43;;;;;;;2.80;0.77;;;16.90;99.90;;;;;;5054950;28;20419;-71
2021/08/30 06:23:09;;;;;;;0.90;0.63;;;17.00;99.90;;;;;;5054813;28;20180;-71
2021/08/30 06:25:34;;;;;;;0.77;0.77;;;17.00;99.90;;;;;;5054665;28;20486;-71
2021/08/30 06:28:00;;;;;;;3.97;3.77;;;17.00;99.90;;;;;;5054954;28;20215;-71
2021/08/30 06:30:26;;;;;;;1.07;0.97;;;17.00;99.90;;;;;;5054672;28;20513;-71
2021/08/30 06:32:52;;;;;;;2.30;1.50;;;17.20;99.90;;;;;;5054012;28;20533;-71
2021/08/30 06:35:19;;;;;;;1.07;0.97;;;17.10;99.90;;;;;;5054164;28;20263;-69
2021/08/30 06:37:44;;;;;;;1.50;1.43;;;17.00;99.90;;;;;;5041546;28;20517;-69
2021/08/30 06:40:11;;;;;;;1.37;1.27;;;17.00;99.90;;;;;;5039771;28;20471;-68
2021/08/30 06:42:37;;;;;;;1.37;1.27;;;17.00;99.90;;;;;;5045728;28;20204;-68
2021/08/30 06:45:04;;;;;;;4.47;4.17;;;17.20;99.90;;;;;;5049988;28;20435;-68
2021/08/30 06:47:29;;;;;;;2.23;1.60;;;17.30;99.90;;;;;;5054204;28;20518;-71
2021/08/30 06:49:55;;;;;;;4.10;2.60;;;17.20;99.90;;;;;;5054147;28;20513;-70
2021/08/30 06:52:21;;;;;;;2.33;1.83;;;17.50;99.90;;;;;;5054251;28;20451;-72
2021/08/30 06:54:47;;;;;;;2.43;1.50;;;17.80;99.90;;;;;;5054193;28;20261;-72
2021/08/30 06:57:13;;;;;;;3.37;3.10;;;17.50;99.90;;;;;;5054311;28;20181;-72
2021/08/30 06:59:38;;;;;;;4.03;2.43;;;17.60;99.90;;;;;;5052971;28;20438;-72
2021/08/30 07:02:04;;;;;;;4.93;2.20;;;17.60;99.90;;;;;;5053908;28;20188;-70
2021/08/30 07:04:29;;;;;;;0.60;0.50;;;17.40;99.90;;;;;;5054133;28;20206;-70
2021/08/30 07:06:55;;;;;;;5.70;4.27;;;17.50;99.90;;;;;;5054211;28;20185;-70
2021/08/30 07:09:20;;;;;;;1.23;1.03;;;17.60;99.90;;;;;;5053003;28;20513;-72
2021/08/30 07:11:47;;;;;;;4.43;3.90;;;17.60;99.90;;;;;;5052789;28;20211;-68
2021/08/30 07:14:13;;;;;;;9.53;3.83;;;17.60;99.90;;;;;;5052777;28;20241;-68
2021/08/30 07:16:39;;;;;;;2.87;2.20;;;17.60;99.90;;;;;;5053974;28;20520;-68
2021/08/30 07:19:04;;;;;;;2.77;2.57;;;17.90;99.90;;;;;;5053661;28;20188;-68
2021/08/30 07:21:30;;;;;;;5.90;4.87;;;18.00;99.90;;;;;;5052894;28;20196;-69
2021/08/30 07:23:56;;;;;;;0.90;0.90;;;18.00;99.90;;;;;;5054017;28;20172;-69
2021/08/30 07:26:22;;;;;;;0.60;0.60;;;18.10;99.90;;;;;;5053912;28;20184;-71
2021/08/30 07:28:47;;;;;;;5.70;3.97;;;18.40;99.90;;;;;;5065981;28;20249;-70
2021/08/30 07:31:14;;;;;;;0.93;0.93;;;17.90;99.90;;;;;;5073609;28;20342;-70
2021/08/30 07:33:40;;;;;;;2.17;1.90;;;18.00;99.90;;;;;;5073792;28;20172;-70
2021/08/30 07:36:06;;;;;;;0.70;0.70;;;18.10;99.90;;;;;;5073738;28;20428;-69
2021/08/30 07:38:32;;;;;;;0.87;0.87;;;18.10;99.90;;;;;;5054867;28;20498;-71
2021/08/30 07:40:57;;;;;;;1.63;1.40;;;18.20;99.90;;;;;;5052615;28;20215;-70
2021/08/30 07:43:23;;;;;;;0.40;0.20;;;18.20;99.90;;;;;;5053795;28;20296;-70
2021/08/30 07:45:49;;;;;;;1.17;1.07;;;18.20;99.90;;;;;;5053775;28;20181;-70
2021/08/30 07:48:15;;;;;;;2.97;2.73;;;18.00;99.90;;;;;;5052392;28;20494;-70
2021/08/30 07:50:40;;;;;;;1.37;1.27;;;18.10;75.60;;;;;;5052631;28;20446;-69
2021/08/30 07:53:06;;;;;;;1.17;0.93;;;18.10;90.90;;;;;;5053355;28;20291;-68
2021/08/30 07:55:35;;;;;;;2.00;1.33;;;18.20;99.90;;;;;;5052558;28;20197;-68
2021/08/30 07:58:00;;;;;;;0.90;0.90;;;17.90;50.10;;;;;;5053369;28;20232;-68
2021/08/30 08:00:26;;;;;;;1.20;1.10;;;17.90;99.90;;;;;;5053543;28;20479;-67
2021/08/30 08:02:52;;;;;;;3.10;1.10;;;17.80;99.90;;;;;;5055609;28;20180;-67
2021/08/30 08:05:18;;;;;;;2.40;1.83;;;17.70;99.90;;;;;;5057654;28;20181;-68
2021/08/30 08:07:44;;;;;;;7.00;2.30;;;17.70;99.90;;;;;;5056180;28;20427;-67
2021/08/30 08:10:10;;;;;;;7.07;1.90;;;17.80;99.90;;;;;;5057014;28;20510;-68
2021/08/30 08:12:35;;;;;;;1.33;0.80;;;17.80;99.90;;;;;;5057350;28;20265;-66
2021/08/30 08:15:01;;;;;;;2.53;2.10;;;17.90;99.90;;;;;;5057383;28;20442;-66
2021/08/30 08:17:26;;;;;;;0.90;0.80;;;18.10;99.90;;;;;;5057138;28;20184;-71
2021/08/30 08:19:52;;;;;;;2.50;2.40;;;18.20;99.90;;;;;;5056845;28;20173;-71
2021/08/30 08:22:18;;;;;;;0.87;0.87;;;18.20;94.00;;;;;;5055712;28;20267;-71
2021/08/30 08:24:43;;;;;;;2.20;0.80;;;18.10;45.60;;;;;;5057157;28;20181;-71
2021/08/30 08:27:09;;;;;;;1.80;1.70;;;18.10;83.30;;;;;;5056984;28;20208;-70
2021/08/30 08:29:34;;;;;;;3.00;2.80;;;18.10;52.30;;;;;;5056910;28;20192;-69
2021/08/30 08:32:00;;;;;;;0.60;0.40;;;18.00;19.20;;;;;;5056598;28;20227;-68
2021/08/30 08:34:25;;;;;;;1.77;1.33;;;18.10;45.10;;;;;;5056496;28;20259;-68
2021/08/30 08:36:51;;;;;;;5.43;3.80;;;18.10;2.00;;;;;;5051635;28;20226;-70
2021/08/30 08:39:16;;;;;;;1.50;1.13;;;18.10;11.80;;;;;;5036315;28;20177;-71
2021/08/30 08:41:42;;;;;;;0.80;0.50;;;18.10;57.50;;;;;;5036067;28;20181;-71
2021/08/30 08:44:08;;;;;;;2.20;1.20;;;18.10;45.10;;;;;;5037089;28;20212;-71
2021/08/30 08:46:38;;;;;;;6.53;2.73;;;18.40;12.10;;;;;;5035477;28;20204;-69
2021/08/30 08:49:05;;;;;;;1.93;1.53;;;18.60;1.00;;;;;;5036603;28;20428;-68
2021/08/30 08:51:31;;;;;;;0.40;0.20;;;18.60;1.00;;;;;;5050368;28;20455;-70
2021/08/30 08:53:58;;;;;;;0.60;0.47;;;18.60;1.00;;;;;;5056858;28;20885;-72
2021/08/30 08:56:26;;;;;;;1.27;1.17;;;18.80;1.00;;;;;;5057187;28;20302;-70
2021/08/30 08:58:52;;;;;;;1.63;0.30;;;18.80;1.00;;;;;;5056237;28;20447;-71
2021/08/30 09:01:26;;;;;;;0.97;0.67;;;18.70;1.00;;;;;;5055243;28;20908;-69
2021/08/30 09:03:55;;;;;;;1.57;1.47;;;18.90;1.00;;;;;;5056245;28;20895;-69
2021/08/30 09:06:30;;;;;;;0.60;0.60;;;18.90;1.00;;;;;;5056351;28;20493;-72
2021/08/30 09:09:07;;;;;;;1.73;1.30;;;18.70;1.00;;;;;;5056308;28;20422;-66
2021/08/30 09:11:43;;;;;;;0.70;0.70;;;18.50;1.00;;;;;;5056025;28;20450;-70
2021/08/30 09:14:19;;;;;;;8.10;2.13;;;18.40;1.00;;;;;;5055550;28;20423;-68
2021/08/30 09:16:47;;;;;;;0.40;0.20;;;18.20;1.00;;;;;;5055132;28;20426;-70
2021/08/30 09:19:15;;;;;;;3.90;3.57;;;18.10;42.40;;;;;;5056026;28;20423;-72
2021/08/30 09:21:49;;;;;;;2.90;1.93;;;18.20;43.10;;;;;;5055311;28;20435;-71
2021/08/30 09:24:23;;;;;;;3.63;1.60;;;18.10;1.00;;;;;;5054815;28;20454;-72
2021/08/30 09:26:54;;;;;;;2.13;1.93;;;17.90;1.00;;;;;;5056175;28;20438;-71
2021/08/30 09:29:22;;;;;;;0.67;0.40;;;17.90;1.00;;;;;;5072879;28;20426;-70
2021/08/30 09:32:07;;;;;;;1.50;1.40;;;17.80;1.00;;;;;;5075750;28;20469;-71
2021/08/30 09:34:39;;;;;;;0.40;0.20;;;17.90;1.00;;;;;;5075856;28;20442;-71
2021/08/30 09:37:11;;;;;;;2.23;2.10;;;18.00;1.00;;;;;;5062476;28;20873;-71
2021/08/30 09:39:47;;;;;;;1.57;1.37;;;18.10;1.00;;;;;;5036008;28;20501;-70
2021/08/30 09:42:13;;;;;;;0.40;0.10;;;18.00;1.00;;;;;;5036001;28;20443;-70
2021/08/30 09:44:39;;;;;;;1.50;1.17;;;17.90;1.00;;;;;;5035866;28;20907;-71
2021/08/30 09:47:13;;;;;;;2.13;1.93;;;17.70;16.70;;;;;;5035615;28;20432;-71
2021/08/30 09:49:40;;;;;;;1.30;0.90;;;17.80;12.70;;;;;;5035513;28;20219;-71
2021/08/30 09:52:06;;;;;;;1.37;1.27;;;17.70;1.00;;;;;;5055414;28;20801;-73
2021/08/30 09:54:32;;;;;;;2.23;1.30;;;17.90;1.00;;;;;;5055302;28;20427;-68
2021/08/30 09:56:58;;;;;;;3.33;2.10;;;18.10;1.00;;;;;;5055155;28;20649;-68
2021/08/30 09:59:25;;;;;;;2.90;2.17;;;18.10;1.00;;;;;;5055213;28;20435;-68
2021/08/30 10:01:53;;;;;;;1.70;0.97;;;18.30;1.00;;;;;;5055275;28;20562;-71
2021/08/30 10:04:20;;;;;;;1.03;0.93;;;18.30;1.00;;;;;;5054436;28;20441;-72
2021/08/30 10:06:49;;;;;;;0.77;0.40;;;18.30;1.00;;;;;;5045346;28;20440;-72
2021/08/30 10:09:15;;;;;;;1.03;0.50;;;18.40;1.00;;;;;;5042229;28;20514;-71
2021/08/30 10:11:43;;;;;;;1.73;1.63;;;18.20;1.00;;;;;;5055496;28;20838;-71
2021/08/30 10:14:12;;;;;;;2.10;0.83;;;18.00;1.00;;;;;;5043011;28;20539;-71
2021/08/30 10:16:40;;;;;;;3.80;2.27;;;18.30;1.00;;;;;;5034902;28;20452;-72
2021/08/30 10:19:05;;;;;;;2.30;1.70;;;18.20;1.00;;;;;;5033813;28;20424;-71
2021/08/30 10:21:31;;;;;;;2.57;2.37;;;18.10;1.00;;;;;;5037054;28;20455;-70
2021/08/30 10:23:58;;;;;;;0.73;0.57;;;18.00;12.50;;;;;;5053515;28;20181;-71
2021/08/30 10:26:37;;;;;;;0.90;0.67;;;18.10;16.40;;;;;;5054529;28;20189;-70
2021/08/30 10:29:03;;;;;;;1.63;1.23;;;18.20;1.00;;;;;;5054301;28;20879;-70
2021/08/30 10:31:28;;;;;;;3.27;2.97;;;18.30;1.00;;;;;;5054635;28;20463;-72
2021/08/30 10:33:56;;;;;;;2.40;1.40;;;18.30;1.00;;;;;;5053256;28;20181;-71
2021/08/30 10:36:24;;;;;;;0.50;0.37;;;18.20;1.00;;;;;;5053681;28;20213;-70
2021/08/30 10:39:06;;;;;;;2.27;1.37;;;18.40;1.00;;;;;;5037030;28;20439;-71
2021/08/30 10:41:37;;;;;;;2.60;1.37;;;18.40;1.00;;;;;;5053341;28;20907;-71
2021/08/30 10:44:14;;;;;;;0.40;0.20;;;18.20;1.00;;;;;;5054413;28;20431;-71
2021/08/30 10:46:47;;;;;;;0.67;0.57;;;18.30;16.90;;;;;;5053329;28;20756;-69
2021/08/30 10:49:33;;;;;;;0.50;0.40;;;18.10;44.60;;;;;;5054352;28;20779;-69
2021/08/30 10:52:11;;;;;;;1.43;1.33;;;18.10;33.80;;;;;;5053796;28;20459;-69
2021/08/30 10:54:51;;;;;;;1.03;0.93;;;18.00;21.70;;;;;;5053348;28;20450;-69
2021/08/30 10:57:17;;;;;;;0.50;0.40;;;17.90;62.50;;;;;;5052963;28;20427;-70
2021/08/30 10:59:43;;;;;;;3.10;1.90;;;18.10;52.70;;;;;;5053839;28;20822;-70
2021/08/30 11:02:09;;;;;;;0.60;0.53;;;18.30;1.00;;;;;;5054040;28;20617;-72
2021/08/30 11:04:39;;;;;;;3.67;2.40;;;18.20;1.00;;;;;;5053978;28;20474;-71
2021/08/30 11:07:07;;;;;;;2.00;1.87;;;18.20;1.00;;;;;;5053254;28;20453;-72
2021/08/30 11:09:42;;;;;;;2.00;1.87;;;18.10;1.00;;;;;;5053933;28;20490;-71
2021/08/30 11:12:14;;;;;;;1.13;0.70;;;18.50;1.00;;;;;;5053857;28;20482;-69
2021/08/30 11:14:40;;;;;;;3.73;1.40;;;19.00;1.00;;;;;;5053823;28;20492;-69
2021/08/30 11:17:08;;;;;;;0.40;0.20;;;19.00;1.00;;;;;;5053669;28;20431;-71
2021/08/30 11:19:34;;;;;;;1.03;0.97;;;19.40;1.00;;;;;;5053820;28;20427;-71
2021/08/30 11:22:00;;;;;;;1.07;0.60;;;19.60;1.00;;;;;;5052763;28;20522;-71
2021/08/30 11:24:36;;;;;;;11.60;3.27;;;19.60;99.90;;;;;;5053638;28;20234;-71
2021/08/30 11:27:10;;;;;;;2.40;1.17;;;19.40;99.90;;;;;;5052392;28;20938;-72
2021/08/30 11:29:42;;;;;;;0.40;0.20;;;19.30;1.00;;;;;;5053428;28;20438;-70
2021/08/30 11:32:09;;;;;;;1.33;0.83;;;19.70;1.00;;;;;;5053110;28;20487;-68
2021/08/30 11:34:37;;;;;;;0.50;0.20;;;19.60;1.00;;;;;;5053537;28;20438;-69
2021/08/30 11:37:04;;;;;;;1.13;1.03;;;19.80;99.90;;;;;;5044830;28;20479;-69
2021/08/30 11:39:33;;;;;;;1.93;1.50;;;19.60;99.90;;;;;;5034838;28;20924;-70
2021/08/30 11:42:05;;;;;;;1.90;1.20;;;19.20;1.00;;;;;;5053774;28;20437;-71
2021/08/30 11:44:32;;;;;;;2.20;2.00;;;18.90;1.00;;;;;;5053706;28;20435;-71
2021/08/30 11:47:00;;;;;;;2.77;1.67;;;18.70;1.00;;;;;;5053371;28;20868;-70
2021/08/30 11:49:29;;;;;;;0.67;0.57;;;18.70;1.00;;;;;;5053267;28;20435;-71
2021/08/30 11:51:57;;;;;;;2.20;2.10;;;18.50;1.00;;;;;;5053343;28;20455;-71
2021/08/30 11:54:35;;;;;;;2.53;1.87;;;18.50;1.00;;;;;;5053319;28;20540;-70
2021/08/30 11:57:03;;;;;;;2.30;2.20;;;18.40;1.00;;;;;;5053566;28;20435;-69
2021/08/30 11:59:35;;;;;;;1.10;0.60;;;18.40;1.00;;;;;;5053175;28;20470;-70
2021/08/30 12:02:01;;;;;;;1.27;1.17;;;18.30;1.00;;;;;;5053303;28;20450;-71
2021/08/30 12:04:29;;;;;;;1.33;1.23;;;18.30;1.00;;;;;;5053358;28;20428;-70
2021/08/30 12:06:57;;;;;;;0.63;0.63;;;18.40;1.00;;;;;;5053214;28;20445;-70
2021/08/30 12:09:23;;;;;;;1.50;1.40;;;18.50;1.00;;;;;;5053004;28;20451;-70
2021/08/30 12:11:52;;;;;;;0.40;0.20;;;18.70;1.00;;;;;;5053227;28;20481;-72
2021/08/30 12:14:20;;;;;;;1.20;0.47;;;18.90;1.00;;;;;;5052195;28;20532;-73
2021/08/30 12:16:49;;;;;;;2.97;1.53;;;19.10;1.00;;;;;;5053726;28;20431;-70
2021/08/30 12:19:15;;;;;;;1.20;1.10;;;18.90;1.00;;;;;;5051863;28;20485;-70
2021/08/30 12:21:41;;;;;;;0.80;0.43;;;19.00;1.00;;;;;;5053148;28;20427;-71
2021/08/30 12:24:08;;;;;;;0.40;0.10;;;19.10;1.00;;;;;;5052969;28;20466;-70
2021/08/30 12:26:39;;;;;;;1.00;0.87;;;19.50;99.90;;;;;;5053221;28;20804;-68
2021/08/30 12:29:04;;;;;;;7.30;3.00;;;19.50;99.90;;;;;;5067693;28;20922;-68
2021/08/30 12:31:32;;;;;;;4.57;1.50;;;19.20;99.90;;;;;;5071990;28;20466;-69
2021/08/30 12:34:15;;;;;;;3.57;1.40;;;19.00;99.90;;;;;;5041430;28;20230;-69
2021/08/30 12:36:42;;;;;;;2.80;2.23;;;19.00;99.90;;;;;;5041696;28;20439;-74
2021/08/30 12:39:08;;;;;;;2.10;1.77;;;19.10;99.90;;;;;;5041603;28;20445;-73
2021/08/30 12:41:34;;;;;;;2.33;1.93;;;19.00;99.90;;;;;;5043869;28;20428;-69
2021/08/30 12:44:00;;;;;;;1.53;0.67;;;18.90;99.90;;;;;;5040454;28;20200;-69
2021/08/30 12:46:26;;;;;;;2.03;1.60;;;19.00;99.90;;;;;;5042601;28;20195;-72
2021/08/30 12:48:52;;;;;;;2.37;2.17;;;19.20;99.90;;;;;;5036005;28;20185;-64
2021/08/30 12:51:18;;;;;;;0.50;0.30;;;19.00;99.90;;;;;;5049917;28;21007;-64
2021/08/30 12:53:44;;;;;;;1.13;0.83;;;19.00;99.90;;;;;;5056424;28;20423;-64